createdAt,value
2018-02-19T00:01:43.425Z,22.80
2018-02-19T00:04:10.608Z,26.90
2018-02-19T00:06:36.886Z,23.85
2018-02-19T00:09:03.095Z,28.35
2018-02-19T00:11:30.064Z,21.50
2018-02-19T00:13:57.028Z,27.48
2018-02-19T00:16:23.746Z,23.45
2018-02-19T00:18:50.737Z,35.70
2018-02-19T00:21:16.956Z,33.08
2018-02-19T00:23:43.917Z,28.60
2018-02-19T00:26:11.759Z,24.75
2018-02-19T00:28:38.089Z,25.10
2018-02-19T00:31:05.812Z,31.87
2018-02-19T00:33:33.259Z,30.10
2018-02-19T00:36:00.236Z,27.50
2018-02-19T00:38:26.633Z,25.65
2018-02-19T00:40:53.588Z,27.33
2018-02-19T00:43:20.090Z,30.73
2018-02-19T00:45:46.321Z,26.27
2018-02-19T00:48:12.528Z,30.85
2018-02-19T00:50:39.008Z,32.10
2018-02-19T00:53:05.196Z,33.00
2018-02-19T00:55:31.355Z,28.98
2018-02-19T00:57:57.664Z,26.45
2018-02-19T01:00:24.180Z,28.75
2018-02-19T01:02:51.161Z,26.70
2018-02-19T01:05:17.417Z,26.90
2018-02-19T01:07:43.652Z,26.35
2018-02-19T01:10:09.824Z,26.60
2018-02-19T01:12:36.133Z,26.77
2018-02-19T01:15:02.330Z,29.40
2018-02-19T01:17:29.357Z,26.83
2018-02-19T01:19:55.669Z,25.45
2018-02-19T01:22:21.956Z,30.00
2018-02-19T01:24:48.130Z,27.42
2018-02-19T01:27:14.479Z,27.37
2018-02-19T01:29:40.692Z,27.90
2018-02-19T01:32:07.720Z,29.80
2018-02-19T01:34:33.968Z,30.55
2018-02-19T01:37:00.283Z,27.02
2018-02-19T01:39:26.904Z,27.42
2018-02-19T01:41:53.938Z,28.80
2018-02-19T01:44:20.948Z,31.57
2018-02-19T01:46:47.141Z,28.23
2018-02-19T01:49:13.671Z,29.60
2018-02-19T01:51:39.868Z,25.35
2018-02-19T01:54:06.112Z,34.88
2018-02-19T01:56:32.575Z,33.17
2018-02-19T01:58:58.760Z,25.40
2018-02-19T02:01:25.042Z,28.38
2018-02-19T02:03:52.348Z,27.77
2018-02-19T02:06:18.536Z,29.08
2018-02-19T02:08:45.507Z,31.80
2018-02-19T02:11:13.324Z,27.05
2018-02-19T02:13:39.892Z,30.12
2018-02-19T02:16:06.052Z,30.33
2018-02-19T02:18:33.785Z,32.20
2018-02-19T02:20:59.996Z,25.52
2018-02-19T02:23:26.186Z,26.42
2018-02-19T02:25:52.399Z,27.62
2018-02-19T02:28:18.640Z,37.70
2018-02-19T02:30:44.824Z,27.87
2018-02-19T02:33:11.067Z,37.33
2018-02-19T02:35:37.385Z,43.38
2018-02-19T02:38:03.589Z,27.15
2018-02-19T02:40:30.188Z,40.28
2018-02-19T02:42:56.393Z,29.00
2018-02-19T02:45:23.333Z,28.17
2018-02-19T02:47:50.247Z,29.87
2018-02-19T02:50:16.500Z,26.15
2018-02-19T02:52:43.572Z,34.42
2018-02-19T02:55:09.824Z,28.62
2018-02-19T02:57:36.065Z,32.83
2018-02-19T03:00:03.901Z,27.83
2018-02-19T03:02:30.132Z,34.05
2018-02-19T03:04:56.300Z,26.45
2018-02-19T03:07:24.246Z,28.27
2018-02-19T03:09:51.210Z,29.77
2018-02-19T03:12:18.168Z,26.98
2018-02-19T03:14:44.383Z,33.90
2018-02-19T03:17:11.406Z,25.80
2018-02-19T03:19:37.785Z,33.45
2018-02-19T03:22:04.721Z,39.92
2018-02-19T03:24:31.668Z,26.58
2018-02-19T03:26:57.843Z,31.05
2018-02-19T03:29:24.057Z,24.80
2018-02-19T03:31:51.035Z,32.28
2018-02-19T03:34:18.514Z,29.42
2018-02-19T03:36:44.770Z,32.75
2018-02-19T03:39:11.903Z,28.33
2018-02-19T03:41:38.294Z,41.55
2018-02-19T03:44:04.500Z,29.60
2018-02-19T03:46:31.343Z,26.83
2018-02-19T03:48:57.926Z,39.17
2018-02-19T03:51:24.156Z,23.65
2018-02-19T03:53:51.879Z,28.08
2018-02-19T03:56:18.832Z,28.20
2018-02-19T03:58:45.975Z,29.23
2018-02-19T04:01:12.991Z,27.65
2018-02-19T04:03:40.105Z,30.90
2018-02-19T04:06:06.281Z,27.70
2018-02-19T04:08:32.575Z,36.53
2018-02-19T04:10:59.615Z,31.52
2018-02-19T04:13:25.848Z,29.12
2018-02-19T04:15:52.798Z,30.05
2018-02-19T04:18:19.951Z,31.17
2018-02-19T04:20:46.953Z,31.52
2018-02-19T04:23:13.141Z,38.45
2018-02-19T04:25:40.222Z,26.40
2018-02-19T04:28:06.536Z,28.80
2018-02-19T04:30:34.133Z,33.63
2018-02-19T04:33:01.064Z,29.85
2018-02-19T04:35:27.260Z,30.50
2018-02-19T04:37:53.535Z,27.33
2018-02-19T04:40:19.745Z,29.95
2018-02-19T04:42:49.589Z,33.63
2018-02-19T04:45:26.730Z,30.98
2018-02-19T04:47:53.052Z,32.10
2018-02-19T04:50:19.253Z,29.25
2018-02-19T04:52:45.521Z,33.80
2018-02-19T04:55:11.818Z,30.60
2018-02-19T04:57:38.084Z,40.30
2018-02-19T05:00:07.572Z,38.47
2018-02-19T05:02:34.135Z,35.88
2018-02-19T05:05:01.334Z,31.37
2018-02-19T05:07:28.022Z,30.20
2018-02-19T05:09:54.425Z,34.03
2018-02-19T05:12:20.630Z,29.65
2018-02-19T05:14:47.799Z,35.03
2018-02-19T05:17:13.964Z,30.98
2018-02-19T05:19:41.061Z,34.30
2018-02-19T05:22:07.265Z,45.05
2018-02-19T05:24:34.431Z,34.60
2018-02-19T05:27:01.349Z,39.67
2018-02-19T05:29:27.541Z,31.58
2018-02-19T05:31:53.896Z,33.58
2018-02-19T05:34:21.478Z,40.85
2018-02-19T05:36:47.927Z,38.38
2018-02-19T05:41:51.732Z,33.60
2018-02-19T05:44:18.824Z,33.10
2018-02-19T05:46:45.770Z,41.17
2018-02-19T05:49:12.575Z,35.30
2018-02-19T05:51:39.516Z,34.53
2018-02-19T05:54:05.760Z,39.15
2018-02-19T05:56:32.315Z,40.65
2018-02-19T05:58:58.532Z,32.47
2018-02-19T06:01:25.696Z,37.60
2018-02-19T06:03:52.972Z,42.88
2018-02-19T06:06:19.990Z,38.50
2018-02-19T06:08:46.937Z,39.75
2018-02-19T06:11:13.606Z,38.50
2018-02-19T06:13:39.821Z,41.95
2018-02-19T06:16:06.147Z,39.25
2018-02-19T06:18:32.353Z,39.05
2018-02-19T06:20:59.336Z,36.17
2018-02-19T06:23:25.699Z,34.05
2018-02-19T06:25:51.888Z,42.55
2018-02-19T06:28:19.444Z,40.70
2018-02-19T06:30:46.077Z,48.63
2018-02-19T06:33:12.313Z,46.88
2018-02-19T06:35:39.299Z,41.00
2018-02-19T06:38:05.636Z,36.38
2018-02-19T06:40:31.844Z,37.78
2018-02-19T06:42:58.735Z,44.67
2018-02-19T06:45:24.996Z,40.72
2018-02-19T06:47:51.544Z,39.63
2018-02-19T06:50:18.509Z,36.10
2018-02-19T06:52:45.644Z,41.45
2018-02-19T06:55:12.609Z,39.05
2018-02-19T06:57:38.976Z,46.72
2018-02-19T07:00:05.220Z,40.25
2018-02-19T07:02:32.180Z,43.65
2018-02-19T07:04:58.410Z,41.80
2018-02-19T07:07:24.656Z,44.78
2018-02-19T07:09:50.874Z,53.45
2018-02-19T07:12:17.856Z,40.05
2018-02-19T07:14:44.067Z,41.50
2018-02-19T07:17:11.088Z,46.08
2018-02-19T07:19:37.589Z,42.67
2018-02-19T07:22:05.347Z,47.05
2018-02-19T07:24:31.527Z,45.15
2018-02-19T07:26:57.768Z,49.80
2018-02-19T07:29:23.999Z,45.55
2018-02-19T07:31:50.175Z,44.78
2018-02-19T07:34:16.353Z,53.53
2018-02-19T07:36:43.329Z,48.35
2018-02-19T07:41:35.904Z,57.67
2018-02-19T07:44:02.836Z,43.60
2018-02-19T07:46:29.827Z,47.53
2018-02-19T07:48:56.033Z,54.13
2018-02-19T07:51:22.231Z,42.75
2018-02-19T07:53:48.429Z,44.47
2018-02-19T07:56:15.446Z,48.90
2018-02-19T07:58:41.697Z,57.58
2018-02-19T08:01:08.284Z,52.35
2018-02-19T08:03:34.499Z,46.35
2018-02-19T08:06:00.678Z,50.17
2018-02-19T08:08:26.876Z,50.95
2018-02-19T08:10:53.120Z,54.42
2018-02-19T08:13:19.365Z,49.35
2018-02-19T08:15:46.193Z,55.55
2018-02-19T08:18:12.456Z,56.10
2018-02-19T08:20:38.714Z,50.42
2018-02-19T08:23:04.941Z,60.40
2018-02-19T08:25:31.282Z,45.95
2018-02-19T08:27:57.736Z,48.85
2018-02-19T08:30:25.171Z,45.72
2018-02-19T08:32:51.472Z,43.63
2018-02-19T08:35:17.729Z,58.45
2018-02-19T08:37:43.941Z,55.63
2018-02-19T08:40:11.203Z,49.78
2018-02-19T08:42:37.460Z,56.35
2018-02-19T08:45:03.959Z,58.87
2018-02-19T08:47:31.068Z,50.92
2018-02-19T08:49:57.329Z,54.95
2018-02-19T08:52:24.258Z,50.30
2018-02-19T08:54:50.486Z,56.27
2018-02-19T08:57:16.708Z,52.25
2018-02-19T08:59:42.893Z,58.23
2018-02-19T09:02:09.123Z,56.70
2018-02-19T09:04:36.104Z,54.00
2018-02-19T09:07:03.296Z,55.73
2018-02-19T09:09:29.461Z,62.93
2018-02-19T09:11:55.746Z,56.50
2018-02-19T09:14:22.548Z,48.30
2018-02-19T09:16:48.817Z,56.93
2018-02-19T09:19:16.098Z,58.67
2018-02-19T09:21:42.330Z,50.53
2018-02-19T09:24:09.288Z,62.00
2018-02-19T09:26:35.538Z,62.43
2018-02-19T09:29:01.757Z,56.70
2018-02-19T09:31:28.007Z,56.73
2018-02-19T09:33:55.052Z,58.40
2018-02-19T09:36:22.284Z,53.83
2018-02-19T09:38:48.540Z,56.30
2018-02-19T09:41:14.876Z,66.53
2018-02-19T09:43:41.141Z,58.53
2018-02-19T09:46:08.064Z,57.17
2018-02-19T09:48:35.452Z,64.63
2018-02-19T09:51:02.373Z,58.73
2018-02-19T09:53:28.599Z,64.63
2018-02-19T09:55:54.909Z,59.43
2018-02-19T09:58:21.067Z,64.73
2018-02-19T10:00:47.261Z,56.20
2018-02-19T10:03:13.509Z,61.67
2018-02-19T10:05:39.811Z,64.83
2018-02-19T10:08:06.308Z,55.20
2018-02-19T10:10:33.166Z,69.50
2018-02-19T10:12:59.350Z,65.07
2018-02-19T10:15:26.592Z,54.17
2018-02-19T10:17:52.747Z,63.70
2018-02-19T10:20:18.944Z,62.53
2018-02-19T10:22:46.108Z,59.97
2018-02-19T10:25:12.284Z,61.87
2018-02-19T10:27:38.464Z,60.60
2018-02-19T10:30:05.422Z,60.80
2018-02-19T10:32:32.444Z,62.10
2018-02-19T10:34:59.671Z,66.43
2018-02-19T10:37:25.858Z,59.77
2018-02-19T10:39:52.732Z,63.67
2018-02-19T10:42:19.681Z,63.30
2018-02-19T10:44:45.956Z,63.77
2018-02-19T10:47:12.084Z,59.03
2018-02-19T10:49:38.239Z,65.90
2018-02-19T10:52:06.219Z,58.77
2018-02-19T10:54:32.380Z,69.63
2018-02-19T10:56:58.606Z,64.63
2018-02-19T10:59:25.536Z,56.83
2018-02-19T11:01:51.719Z,63.80
2018-02-19T11:04:18.222Z,62.13
2018-02-19T11:06:44.423Z,67.17
2018-02-19T11:09:10.593Z,71.97
2018-02-19T11:11:36.825Z,66.97
2018-02-19T11:14:03.051Z,72.40
2018-02-19T11:16:30.154Z,76.23
2018-02-19T11:18:56.358Z,67.30
2018-02-19T11:21:22.568Z,67.93
2018-02-19T11:23:48.744Z,73.40
2018-02-19T11:26:15.220Z,63.97
2018-02-19T11:28:41.417Z,67.73
2018-02-19T11:31:08.412Z,63.80
2018-02-19T11:33:35.363Z,62.73
2018-02-19T11:36:01.540Z,58.53
2018-02-19T11:38:27.736Z,71.70
2018-02-19T11:40:53.964Z,72.53
2018-02-19T11:43:20.396Z,67.63
2018-02-19T11:45:46.612Z,72.93
2018-02-19T11:48:12.848Z,70.57
2018-02-19T11:50:38.998Z,63.33
2018-02-19T11:53:05.198Z,72.70
2018-02-19T11:55:31.364Z,68.80
2018-02-19T11:57:57.657Z,73.70
2018-02-19T12:00:24.591Z,73.93
2018-02-19T12:02:52.230Z,67.57
2018-02-19T12:05:19.210Z,69.83
2018-02-19T12:07:46.144Z,67.07
2018-02-19T12:10:13.212Z,68.50
2018-02-19T12:12:39.440Z,78.03
2018-02-19T12:15:06.410Z,72.07
2018-02-19T12:17:34.078Z,65.70
2018-02-19T12:20:00.999Z,71.87
2018-02-19T12:22:27.244Z,74.90
2018-02-19T12:24:54.226Z,61.63
2018-02-19T12:27:21.188Z,63.60
2018-02-19T12:29:47.424Z,75.93
2018-02-19T12:32:13.628Z,70.83
2018-02-19T12:34:39.854Z,76.77
2018-02-19T12:37:06.091Z,69.33
2018-02-19T12:39:33.048Z,69.57
2018-02-19T12:41:59.286Z,70.30
2018-02-19T12:44:26.572Z,74.90
2018-02-19T12:46:52.743Z,76.07
2018-02-19T12:49:18.944Z,70.33
2018-02-19T12:51:45.124Z,70.80
2018-02-19T12:54:12.053Z,69.53
2018-02-19T12:56:38.244Z,66.80
2018-02-19T12:59:04.833Z,77.27
2018-02-19T13:01:31.421Z,74.07
2018-02-19T13:03:57.700Z,62.50
2018-02-19T13:06:23.908Z,69.13
2018-02-19T13:08:50.137Z,64.10
2018-02-19T13:11:16.301Z,67.63
2018-02-19T13:13:42.512Z,60.43
2018-02-19T13:16:09.453Z,66.20
2018-02-19T13:18:36.873Z,63.10
2018-02-19T13:21:03.035Z,68.37
2018-02-19T13:23:29.304Z,58.10
2018-02-19T13:25:55.765Z,62.67
2018-02-19T13:28:21.911Z,67.47
2018-02-19T13:30:48.874Z,57.77
2018-02-19T13:33:15.900Z,66.63
2018-02-19T13:35:42.119Z,58.17
2018-02-19T13:38:08.321Z,62.53
2018-02-19T13:40:34.506Z,66.90
2018-02-19T13:43:03.716Z,58.13
2018-02-19T13:45:29.947Z,67.50
2018-02-19T13:47:56.132Z,78.30
2018-02-19T13:50:23.353Z,72.83
2018-02-19T13:52:50.288Z,68.37
2018-02-19T13:55:16.504Z,68.63
2018-02-19T13:57:42.692Z,82.60
2018-02-19T14:00:09.674Z,78.53
2018-02-19T14:02:35.852Z,66.63
2018-02-19T14:05:02.112Z,67.37
2018-02-19T14:07:29.018Z,62.17
2018-02-19T14:09:55.228Z,69.50
2018-02-19T14:12:21.404Z,64.27
2018-02-19T14:14:48.344Z,71.70
2018-02-19T14:17:14.704Z,58.60
2018-02-19T14:19:41.636Z,72.40
2018-02-19T14:22:08.564Z,60.53
2018-02-19T14:24:35.493Z,68.35
2018-02-19T14:27:01.736Z,61.57
2018-02-19T14:29:27.917Z,59.23
2018-02-19T14:31:54.112Z,60.00
2018-02-19T14:34:20.749Z,69.77
2018-02-19T14:36:46.975Z,68.93
2018-02-19T14:39:13.372Z,62.60
2018-02-19T14:41:41.186Z,55.33
2018-02-19T14:44:07.408Z,59.77
2018-02-19T14:46:33.606Z,72.20
2018-02-19T14:49:00.564Z,72.83
2018-02-19T14:51:26.850Z,77.43
2018-02-19T14:53:53.031Z,66.33
2018-02-19T14:56:19.270Z,60.00
2018-02-19T14:58:45.529Z,70.10
2018-02-19T15:01:12.485Z,61.30
2018-02-19T15:03:38.696Z,57.90
2018-02-19T15:06:04.863Z,66.57
2018-02-19T15:08:31.067Z,58.67
2018-02-19T15:10:57.286Z,64.43
2018-02-19T15:13:23.484Z,59.23
2018-02-19T15:15:49.693Z,61.30
2018-02-19T15:18:15.865Z,69.10
2018-02-19T15:20:42.162Z,68.57
2018-02-19T15:23:08.363Z,57.43
2018-02-19T15:25:35.388Z,61.20
2018-02-19T15:28:01.550Z,63.30
2018-02-19T15:30:28.468Z,61.40
2018-02-19T15:32:54.636Z,61.10
2018-02-19T15:35:21.104Z,77.57
2018-02-19T15:37:47.261Z,67.27
2018-02-19T15:40:13.489Z,68.97
2018-02-19T15:42:39.715Z,79.37
2018-02-19T15:45:05.911Z,69.90
2018-02-19T15:47:32.089Z,68.00
2018-02-19T15:49:58.408Z,65.93
2018-02-19T15:52:24.910Z,74.77
2018-02-19T15:54:51.351Z,69.13
2018-02-19T15:57:18.304Z,68.07
2018-02-19T15:59:45.207Z,72.77
2018-02-19T16:02:11.656Z,72.37
2018-02-19T16:04:39.016Z,78.77
2018-02-19T16:07:05.185Z,64.03
2018-02-19T16:09:32.112Z,65.03
2018-02-19T16:11:59.105Z,65.43
2018-02-19T16:14:25.260Z,68.60
2018-02-19T16:16:51.451Z,67.37
2018-02-19T16:19:18.496Z,66.50
2018-02-19T16:21:44.748Z,80.93
2018-02-19T16:24:10.946Z,65.17
2018-02-19T16:26:37.284Z,68.57
2018-02-19T16:29:03.453Z,69.47
2018-02-19T16:31:30.416Z,77.47
2018-02-19T16:33:56.900Z,69.73
2018-02-19T16:36:23.084Z,79.53
2018-02-19T16:38:49.279Z,65.47
2018-02-19T16:41:15.570Z,83.47
2018-02-19T16:43:42.571Z,76.07
2018-02-19T16:46:08.784Z,71.90
2018-02-19T16:48:35.123Z,82.00
2018-02-19T16:51:01.290Z,76.93
2018-02-19T16:53:28.220Z,83.57
2018-02-19T16:55:54.529Z,85.93
2018-02-19T16:58:20.716Z,81.80
2018-02-19T17:00:47.778Z,77.70
2018-02-19T17:03:14.007Z,78.67
2018-02-19T17:05:40.219Z,69.70
2018-02-19T17:08:06.429Z,81.00
2018-02-19T17:10:32.667Z,75.93
2018-02-19T17:12:58.863Z,76.07
2018-02-19T17:15:25.796Z,69.33
2018-02-19T17:17:52.253Z,81.60
2018-02-19T17:20:19.272Z,76.00
2018-02-19T17:22:45.711Z,87.50
2018-02-19T17:25:11.874Z,80.97
2018-02-19T17:27:38.824Z,91.30
2018-02-19T17:30:05.009Z,91.60
2018-02-19T17:32:31.265Z,82.97
2018-02-19T17:35:00.259Z,85.63
2018-02-19T17:37:26.475Z,94.90
2018-02-19T17:39:52.676Z,79.33
2018-02-19T17:42:18.887Z,76.70
2018-02-19T17:44:45.123Z,94.30
2018-02-19T17:47:11.524Z,88.80
2018-02-19T17:49:37.693Z,75.23
2018-02-19T17:52:05.785Z,79.80
2018-02-19T17:54:32.042Z,72.00
2018-02-19T17:56:58.263Z,77.87
2018-02-19T17:59:24.472Z,73.27
2018-02-19T18:01:50.655Z,65.97
2018-02-19T18:04:17.875Z,78.83
2018-02-19T18:06:44.104Z,76.47
2018-02-19T18:09:11.068Z,81.15
2018-02-19T18:11:37.968Z,77.80
2018-02-19T18:14:04.173Z,65.83
2018-02-19T18:16:30.408Z,69.43
2018-02-19T18:18:57.525Z,74.00
2018-02-19T18:21:24.424Z,68.32
2018-02-19T18:23:51.713Z,66.30
2018-02-19T18:26:17.927Z,79.97
2018-02-19T18:28:44.124Z,85.33
2018-02-19T18:31:10.407Z,86.50
2018-02-19T18:33:36.631Z,91.37
2018-02-19T18:36:02.877Z,76.20
2018-02-19T18:38:29.059Z,74.07
2018-02-19T18:40:55.258Z,87.03
2018-02-19T18:45:58.017Z,93.30
2018-02-19T18:48:24.215Z,93.37
2018-02-19T18:50:50.420Z,87.77
2018-02-19T18:53:16.595Z,111.93
2018-02-19T18:55:42.837Z,95.47
2018-02-19T18:58:09.300Z,96.47
2018-02-19T19:00:35.490Z,87.30
2018-02-19T19:03:02.169Z,88.57
2018-02-19T19:05:28.528Z,91.77
2018-02-19T19:08:06.928Z,110.97
2018-02-19T19:10:42.316Z,116.27
2018-02-19T19:13:09.283Z,94.18
2018-02-19T19:15:35.575Z,94.97
2018-02-19T19:18:01.794Z,101.43
2018-02-19T19:20:28.000Z,114.12
2018-02-19T19:22:54.288Z,91.63
2018-02-19T19:25:20.484Z,114.18
2018-02-19T19:27:46.674Z,102.30
2018-02-19T19:30:12.920Z,97.80
2018-02-19T19:32:40.544Z,114.93
2018-02-19T19:35:07.771Z,98.12
2018-02-19T19:37:33.988Z,92.97
2018-02-19T19:40:00.246Z,104.10
2018-02-19T19:42:26.591Z,89.97
2018-02-19T19:44:52.820Z,94.35
2018-02-19T19:47:19.450Z,89.80
2018-02-19T19:49:45.638Z,99.87
2018-02-19T19:52:12.288Z,99.13
2018-02-19T19:54:39.240Z,93.05
2018-02-19T19:57:05.469Z,88.45
2018-02-19T19:59:32.476Z,90.47
2018-02-19T20:01:58.657Z,99.35
2018-02-19T20:04:25.596Z,97.75
2018-02-19T20:06:51.824Z,93.27
2018-02-19T20:09:18.094Z,106.40
2018-02-19T20:11:45.331Z,95.40
2018-02-19T20:14:12.286Z,160.95
2018-02-19T20:16:39.220Z,203.47
2018-02-19T20:19:05.496Z,137.32
2018-02-19T20:21:32.426Z,98.37
2018-02-19T20:23:59.336Z,95.03
2018-02-19T20:26:25.540Z,95.90
2018-02-19T20:28:51.792Z,99.57
2018-02-19T20:31:17.993Z,89.30
2018-02-19T20:33:44.234Z,94.93
2018-02-19T20:36:11.197Z,85.00
2018-02-19T20:38:37.368Z,84.28
2018-02-19T20:41:03.613Z,91.65
2018-02-19T20:43:30.048Z,84.25
2018-02-19T20:45:56.288Z,88.82
2018-02-19T20:48:22.673Z,85.32
2018-02-19T20:50:48.891Z,85.68
2018-02-19T20:53:15.841Z,80.60
2018-02-19T20:55:42.404Z,84.35
2018-02-19T20:58:08.616Z,93.62
2018-02-19T21:00:34.776Z,93.40
2018-02-19T21:03:00.967Z,78.97
2018-02-19T21:05:27.384Z,99.00
2018-02-19T21:07:53.568Z,83.72
2018-02-19T21:10:19.732Z,85.47
2018-02-19T21:12:45.963Z,84.47
2018-02-19T21:15:12.185Z,84.67
2018-02-19T21:17:39.147Z,89.93
2018-02-19T21:20:05.308Z,91.22
2018-02-19T21:22:31.736Z,84.03
2018-02-19T21:24:57.927Z,82.93
2018-02-19T21:27:24.116Z,78.57
2018-02-19T21:29:50.454Z,85.95
2018-02-19T21:32:16.655Z,88.15
2018-02-19T21:34:42.865Z,88.90
2018-02-19T21:37:10.505Z,84.72
2018-02-19T21:39:36.785Z,95.03
2018-02-19T21:42:03.012Z,82.50
2018-02-19T21:44:29.420Z,97.05
2018-02-19T21:46:56.364Z,94.40
2018-02-19T21:49:22.583Z,86.73
2018-02-19T21:51:49.051Z,91.75
2018-02-19T21:54:15.265Z,109.63
2018-02-19T21:56:41.720Z,118.80
2018-02-19T21:59:07.924Z,101.00
2018-02-19T22:01:34.148Z,93.87
2018-02-19T22:04:00.336Z,97.32
2018-02-19T22:06:27.247Z,87.40
2018-02-19T22:08:54.182Z,105.95
2018-02-19T22:11:20.372Z,95.32
2018-02-19T22:13:46.560Z,90.05
2018-02-19T22:16:12.793Z,88.55
2018-02-19T22:18:39.752Z,73.12
2018-02-19T22:21:06.000Z,83.43
2018-02-19T22:23:32.245Z,92.10
2018-02-19T22:25:58.498Z,99.28
2018-02-19T22:28:24.755Z,91.22
2018-02-19T22:30:50.909Z,83.97
2018-02-19T22:33:17.132Z,87.28
2018-02-19T22:35:43.401Z,91.32
2018-02-19T22:38:09.588Z,78.85
2018-02-19T22:40:35.841Z,94.43
2018-02-19T22:43:02.043Z,91.75
2018-02-19T22:45:28.311Z,83.50
2018-02-19T22:47:54.520Z,82.82
2018-02-19T22:50:20.765Z,105.87
2018-02-19T22:52:46.918Z,89.78
2018-02-19T22:55:13.138Z,88.85
2018-02-19T22:57:39.612Z,95.38
2018-02-19T23:00:05.790Z,99.57
2018-02-19T23:02:32.026Z,93.40
2018-02-19T23:04:58.260Z,85.95
2018-02-19T23:07:24.516Z,89.35
2018-02-19T23:09:50.722Z,87.20
2018-02-19T23:12:16.984Z,84.32
2018-02-19T23:14:43.957Z,83.90
2018-02-19T23:17:10.958Z,85.93
2018-02-19T23:19:38.280Z,86.70
2018-02-19T23:22:04.479Z,92.50
2018-02-19T23:24:31.457Z,87.05
2018-02-19T23:26:57.695Z,95.75
2018-02-19T23:29:23.889Z,87.22
2018-02-19T23:31:50.923Z,90.72
2018-02-19T23:34:17.862Z,90.65
2018-02-19T23:36:44.793Z,97.35
2018-02-19T23:39:10.984Z,95.32
2018-02-19T23:41:37.437Z,88.95
2018-02-19T23:44:03.631Z,96.20
2018-02-19T23:46:30.540Z,99.70
2018-02-19T23:48:56.728Z,99.75
2018-02-19T23:51:22.937Z,83.60
2018-02-19T23:53:49.168Z,83.82
2018-02-19T23:56:16.096Z,82.93
2018-02-19T23:58:42.479Z,87.20
